createdAt,value
2022-10-20T00:00:16.198Z,9.80
2022-10-20T00:01:16.186Z,9.20
2022-10-20T00:02:16.203Z,9.60
2022-10-20T00:03:16.163Z,9.10
2022-10-20T00:04:16.174Z,9.70
2022-10-20T00:05:16.145Z,8.90
2022-10-20T00:06:16.132Z,9.30
2022-10-20T00:07:16.121Z,9.10
2022-10-20T00:08:16.129Z,9.30
2022-10-20T00:09:16.098Z,9.60
2022-10-20T00:10:16.082Z,9.40
2022-10-20T00:11:16.077Z,8.90
2022-10-20T00:12:16.060Z,9.20
2022-10-20T00:13:16.075Z,9.00
2022-10-20T00:14:16.041Z,9.00
2022-10-20T00:15:16.048Z,9.20
2022-10-20T00:16:16.017Z,9.70
2022-10-20T00:17:16.009Z,9.50
2022-10-20T00:18:15.993Z,9.00
2022-10-20T00:19:16.004Z,9.30
2022-10-20T00:20:15.973Z,9.70
2022-10-20T00:21:15.961Z,9.30
2022-10-20T00:22:15.950Z,9.80
2022-10-20T00:23:15.943Z,9.60
2022-10-20T00:24:15.946Z,8.90
2022-10-20T00:25:15.915Z,9.60
2022-10-20T00:26:15.907Z,9.40
2022-10-20T00:27:15.894Z,9.20
2022-10-20T00:28:15.889Z,10.20
2022-10-20T00:29:15.892Z,10.00
2022-10-20T00:30:15.859Z,9.20
2022-10-20T00:31:15.865Z,8.90
2022-10-20T00:32:15.838Z,9.10
2022-10-20T00:33:15.825Z,9.60
2022-10-20T00:34:15.836Z,8.70
2022-10-20T00:35:16.116Z,8.70
2022-10-20T00:36:15.791Z,8.90
2022-10-20T00:37:15.779Z,9.10
2022-10-20T00:38:15.847Z,9.00
2022-10-20T00:39:15.776Z,8.90
2022-10-20T00:40:15.745Z,9.00
2022-10-20T00:41:15.733Z,8.60
2022-10-20T00:42:15.728Z,9.30
2022-10-20T00:43:15.712Z,9.70
2022-10-20T00:44:15.729Z,9.00
2022-10-20T00:45:15.689Z,9.00
2022-10-20T00:46:15.682Z,9.50
2022-10-20T00:47:15.686Z,9.10
2022-10-20T00:48:15.656Z,8.90
2022-10-20T00:49:15.644Z,8.60
2022-10-20T00:50:15.651Z,9.90
2022-10-20T00:51:15.623Z,9.10
2022-10-20T00:52:15.610Z,9.60
2022-10-20T00:53:15.599Z,9.80
2022-10-20T00:54:15.586Z,9.70
2022-10-20T00:55:15.594Z,8.80
2022-10-20T00:56:15.564Z,10.10
2022-10-20T00:57:15.552Z,9.10
2022-10-20T00:58:15.540Z,9.40
2022-10-20T00:59:15.535Z,10.10
2022-10-20T01:00:15.541Z,9.50
2022-10-20T01:01:15.574Z,9.30
2022-10-20T01:02:15.498Z,9.40
2022-10-20T01:03:15.503Z,9.90
2022-10-20T01:04:15.472Z,10.10
2022-10-20T01:05:15.483Z,10.50
2022-10-20T01:07:15.440Z,9.40
2022-10-20T01:08:15.431Z,9.60
2022-10-20T01:09:15.427Z,8.90
2022-10-20T01:10:15.427Z,9.40
2022-10-20T01:11:15.396Z,9.00
2022-10-20T01:12:15.381Z,9.60
2022-10-20T01:13:15.373Z,9.10
2022-10-20T01:14:15.360Z,8.80
2022-10-20T01:15:15.427Z,9.30
2022-10-20T01:16:15.360Z,8.40
2022-10-20T01:17:15.327Z,8.90
2022-10-20T01:18:15.317Z,9.30
2022-10-20T01:19:15.325Z,8.30
2022-10-20T01:20:15.291Z,9.20
2022-10-20T01:21:15.287Z,8.80
2022-10-20T01:22:15.288Z,8.90
2022-10-20T01:23:15.281Z,9.40
2022-10-20T01:24:15.319Z,8.70
2022-10-20T01:25:15.234Z,8.70
2022-10-20T01:26:15.243Z,8.40
2022-10-20T01:27:15.252Z,8.60
2022-10-20T01:28:15.206Z,8.40
2022-10-20T01:29:15.188Z,8.20
2022-10-20T01:30:15.181Z,8.90
2022-10-20T01:31:15.185Z,8.20
2022-10-20T01:32:15.156Z,7.80
2022-10-20T01:33:15.189Z,7.40
2022-10-20T01:34:15.133Z,7.50
2022-10-20T01:35:15.158Z,7.80
2022-10-20T01:36:15.111Z,7.90
2022-10-20T01:37:28.210Z,7.40
2022-10-20T01:38:16.091Z,7.40
2022-10-20T01:39:15.077Z,7.70
2022-10-20T01:40:15.097Z,6.90
2022-10-20T01:41:15.054Z,7.30
2022-10-20T01:42:15.064Z,7.30
2022-10-20T01:43:15.040Z,7.30
2022-10-20T01:44:15.030Z,7.20
2022-10-20T01:45:15.009Z,7.30
2022-10-20T01:46:15.038Z,6.90
2022-10-20T01:47:15.010Z,7.40
2022-10-20T01:48:14.975Z,5.80
2022-10-20T01:49:14.962Z,6.20
2022-10-20T01:50:14.953Z,6.20
2022-10-20T01:51:14.956Z,6.00
2022-10-20T01:52:14.954Z,6.40
2022-10-20T01:53:14.919Z,6.40
2022-10-20T01:54:14.946Z,6.00
2022-10-20T01:55:14.898Z,5.90
2022-10-20T01:56:14.887Z,6.50
2022-10-20T01:57:14.895Z,6.40
2022-10-20T01:58:14.866Z,7.00
2022-10-20T01:59:14.853Z,6.70
2022-10-20T02:00:14.844Z,6.90
2022-10-20T02:01:14.888Z,7.00
2022-10-20T02:02:14.840Z,7.30
2022-10-20T02:03:14.805Z,6.80
2022-10-20T02:04:14.818Z,7.20
2022-10-20T02:05:14.789Z,7.60
2022-10-20T02:06:14.772Z,7.70
2022-10-20T02:07:14.778Z,7.20
2022-10-20T02:08:14.770Z,7.40
2022-10-20T02:09:14.752Z,7.10
2022-10-20T02:10:14.727Z,6.70
2022-10-20T02:11:14.725Z,6.60
2022-10-20T02:12:14.733Z,6.70
2022-10-20T02:13:14.711Z,6.20
2022-10-20T02:14:14.682Z,5.70
2022-10-20T02:15:14.676Z,5.70
2022-10-20T02:16:14.662Z,5.90
2022-10-20T02:17:14.646Z,5.70
2022-10-20T02:18:14.662Z,5.90
2022-10-20T02:19:14.629Z,5.90
2022-10-20T02:20:14.614Z,6.20
2022-10-20T02:21:14.641Z,5.70
2022-10-20T02:22:14.592Z,5.80
2022-10-20T02:23:14.607Z,5.90
2022-10-20T02:24:14.593Z,5.90
2022-10-20T02:25:14.561Z,6.30
2022-10-20T02:26:14.558Z,6.10
2022-10-20T02:27:14.533Z,6.00
2022-10-20T02:28:14.564Z,5.60
2022-10-20T02:29:14.537Z,5.90
2022-10-20T02:30:14.523Z,6.40
2022-10-20T02:31:14.489Z,6.50
2022-10-20T02:32:14.485Z,6.30
2022-10-20T02:33:14.490Z,6.10
2022-10-20T02:34:14.457Z,5.90
2022-10-20T02:35:14.452Z,6.00
2022-10-20T02:36:14.437Z,5.40
2022-10-20T02:37:14.452Z,5.60
2022-10-20T02:38:14.414Z,6.30
2022-10-20T02:39:14.467Z,6.00
2022-10-20T02:40:14.390Z,6.10
2022-10-20T02:41:14.400Z,6.40
2022-10-20T02:42:14.368Z,5.50
2022-10-20T02:43:14.355Z,5.90
2022-10-20T02:44:14.370Z,5.50
2022-10-20T02:45:14.334Z,5.80
2022-10-20T02:46:17.608Z,6.10
2022-10-20T02:47:14.308Z,6.20
2022-10-20T02:48:14.345Z,6.00
2022-10-20T02:49:14.309Z,6.10
2022-10-20T02:50:14.328Z,6.20
2022-10-20T02:51:14.264Z,6.30
2022-10-20T02:52:14.260Z,5.90
2022-10-20T02:53:14.255Z,6.30
2022-10-20T02:54:14.259Z,5.70
2022-10-20T02:55:14.313Z,6.40
2022-10-20T02:56:14.233Z,6.00
2022-10-20T02:57:14.197Z,6.30
2022-10-20T02:58:14.187Z,6.70
2022-10-20T02:59:14.221Z,6.30
2022-10-20T03:00:14.225Z,6.60
2022-10-20T03:01:14.222Z,6.80
2022-10-20T03:02:14.141Z,6.30
2022-10-20T03:03:14.130Z,7.00
2022-10-20T03:04:14.212Z,6.90
2022-10-20T03:05:14.128Z,7.30
2022-10-20T03:06:14.099Z,6.70
2022-10-20T03:07:14.084Z,6.20
2022-10-20T03:08:14.077Z,5.80
2022-10-20T03:09:14.063Z,6.70
2022-10-20T03:10:14.071Z,7.00
2022-10-20T03:11:14.055Z,6.90
2022-10-20T03:12:14.028Z,7.10
2022-10-20T03:13:14.015Z,6.90
2022-10-20T03:14:14.037Z,6.70
2022-10-20T03:15:13.999Z,6.10
2022-10-20T03:16:14.006Z,7.30
2022-10-20T03:17:13.977Z,7.30
2022-10-20T03:18:13.960Z,7.50
2022-10-20T03:19:13.949Z,7.70
2022-10-20T03:20:13.960Z,7.20
2022-10-20T03:21:13.927Z,6.90
2022-10-20T03:22:13.915Z,7.30
2022-10-20T03:23:16.390Z,7.50
2022-10-20T03:24:14.891Z,7.20
2022-10-20T03:25:13.915Z,7.10
2022-10-20T03:26:13.882Z,7.70
2022-10-20T03:27:13.878Z,7.60
2022-10-20T03:28:13.867Z,6.90
2022-10-20T03:29:13.835Z,7.90
2022-10-20T03:30:13.830Z,7.10
2022-10-20T03:31:13.837Z,7.00
2022-10-20T03:32:13.851Z,7.40
2022-10-20T03:33:13.790Z,7.40
2022-10-20T03:34:13.780Z,7.70
2022-10-20T03:35:13.767Z,8.00
2022-10-20T03:36:13.831Z,7.60
2022-10-20T03:37:13.747Z,7.70
2022-10-20T03:38:13.734Z,7.00
2022-10-20T03:39:13.725Z,7.00
2022-10-20T03:40:13.715Z,8.00
2022-10-20T03:41:13.721Z,7.00
2022-10-20T03:42:13.715Z,7.00
2022-10-20T03:43:13.694Z,7.00
2022-10-20T03:44:13.669Z,7.90
2022-10-20T03:45:16.292Z,7.60
2022-10-20T03:46:13.664Z,7.50
2022-10-20T03:47:13.634Z,7.10
2022-10-20T03:48:13.624Z,7.90
2022-10-20T03:49:13.627Z,7.60
2022-10-20T03:50:13.601Z,7.40
2022-10-20T03:51:13.606Z,7.50
2022-10-20T03:52:13.577Z,7.70
2022-10-20T03:53:13.565Z,8.50
2022-10-20T03:54:13.567Z,8.10
2022-10-20T03:55:13.544Z,7.80
2022-10-20T03:56:13.564Z,7.60
2022-10-20T03:57:13.521Z,7.70
2022-10-20T03:58:13.513Z,8.00
2022-10-20T03:59:13.530Z,8.10
2022-10-20T04:00:13.509Z,7.60
2022-10-20T04:01:13.670Z,7.90
2022-10-20T04:02:13.497Z,8.10
2022-10-20T04:03:13.452Z,8.00
2022-10-20T04:04:13.441Z,8.60
2022-10-20T04:05:13.436Z,7.70
2022-10-20T04:06:13.424Z,7.80
2022-10-20T04:07:13.429Z,7.70
2022-10-20T04:09:13.455Z,7.50
2022-10-20T04:10:13.377Z,8.10
2022-10-20T04:11:13.361Z,8.10
2022-10-20T04:12:13.403Z,8.20
2022-10-20T04:13:13.342Z,8.10
2022-10-20T04:14:13.328Z,8.80
2022-10-20T04:15:13.333Z,8.00
2022-10-20T04:16:13.308Z,8.20
2022-10-20T04:17:13.296Z,8.20
2022-10-20T04:18:13.305Z,8.10
2022-10-20T04:19:13.269Z,9.00
2022-10-20T04:20:13.263Z,8.60
2022-10-20T04:21:13.248Z,8.70
2022-10-20T04:22:13.254Z,9.00
2022-10-20T04:23:13.250Z,8.70
2022-10-20T04:24:13.242Z,8.60
2022-10-20T04:25:13.205Z,8.80
2022-10-20T04:26:13.197Z,8.30
2022-10-20T04:27:13.183Z,8.20
2022-10-20T04:28:13.193Z,8.60
2022-10-20T04:29:13.158Z,8.80
2022-10-20T04:30:13.148Z,8.90
2022-10-20T04:31:13.162Z,8.00
2022-10-20T04:32:13.131Z,8.40
2022-10-20T04:33:13.137Z,8.60
2022-10-20T04:34:13.105Z,8.80
2022-10-20T04:35:13.098Z,8.60
2022-10-20T04:36:13.091Z,9.20
2022-10-20T04:37:13.070Z,8.90
2022-10-20T04:38:13.084Z,9.10
2022-10-20T04:39:13.049Z,9.00
2022-10-20T04:40:13.039Z,9.10
2022-10-20T04:41:13.026Z,8.50
2022-10-20T04:42:13.015Z,8.30
2022-10-20T04:43:13.024Z,7.80
2022-10-20T04:44:12.995Z,8.40
2022-10-20T04:45:12.978Z,8.20
2022-10-20T04:46:12.972Z,8.70
2022-10-20T04:47:13.021Z,8.90
2022-10-20T04:48:12.967Z,8.90
2022-10-20T04:49:12.935Z,8.70
2022-10-20T04:50:12.937Z,8.90
2022-10-20T04:51:12.934Z,8.70
2022-10-20T04:52:12.903Z,8.80
2022-10-20T04:53:12.889Z,9.00
2022-10-20T04:54:12.881Z,8.40
2022-10-20T04:55:12.895Z,8.20
2022-10-20T04:56:12.868Z,8.90
2022-10-20T04:57:12.851Z,8.60
2022-10-20T04:58:12.835Z,8.70
2022-10-20T04:59:13.786Z,9.30
2022-10-20T05:00:12.814Z,9.00
2022-10-20T05:01:12.817Z,8.30
2022-10-20T05:02:12.793Z,8.80
2022-10-20T05:03:12.799Z,8.60
2022-10-20T05:04:12.787Z,9.20
2022-10-20T05:05:12.759Z,8.10
2022-10-20T05:06:12.743Z,9.00
2022-10-20T05:07:12.893Z,8.70
2022-10-20T05:08:12.720Z,8.90
2022-10-20T05:09:12.792Z,8.90
2022-10-20T05:10:12.698Z,9.00
2022-10-20T05:11:12.704Z,9.10
2022-10-20T05:12:12.676Z,8.30
2022-10-20T05:13:12.720Z,9.30
2022-10-20T05:14:12.660Z,9.00
2022-10-20T05:15:12.641Z,9.20
2022-10-20T05:16:12.633Z,8.50
2022-10-20T05:17:12.619Z,9.60
2022-10-20T05:18:12.611Z,9.10
2022-10-20T05:19:12.642Z,9.20
2022-10-20T05:20:12.584Z,9.40
2022-10-20T05:21:12.571Z,9.30
2022-10-20T05:22:12.590Z,9.10
2022-10-20T05:23:12.552Z,10.10
2022-10-20T05:24:15.457Z,9.30
2022-10-20T05:25:35.138Z,8.90
2022-10-20T05:26:13.518Z,9.20
2022-10-20T05:27:12.525Z,9.70
2022-10-20T05:28:12.508Z,9.70
2022-10-20T05:29:12.484Z,9.00
2022-10-20T05:30:12.477Z,9.30
2022-10-20T05:31:12.485Z,9.10
2022-10-20T05:32:12.460Z,8.80
2022-10-20T05:33:12.459Z,9.30
2022-10-20T05:34:12.429Z,9.20
2022-10-20T05:35:12.436Z,9.60
2022-10-20T05:36:12.405Z,9.20
2022-10-20T05:37:12.414Z,9.70
2022-10-20T05:38:12.384Z,9.70
2022-10-20T05:39:12.368Z,10.40
2022-10-20T05:40:12.362Z,9.10
2022-10-20T05:41:12.348Z,9.40
2022-10-20T05:42:12.359Z,10.10
2022-10-20T05:43:12.327Z,10.30
2022-10-20T05:44:12.315Z,9.90
2022-10-20T05:45:12.304Z,9.80
2022-10-20T05:46:12.313Z,10.10
2022-10-20T05:47:12.305Z,9.80
2022-10-20T05:48:12.271Z,9.90
2022-10-20T05:49:12.257Z,10.30
2022-10-20T05:50:12.249Z,9.90
2022-10-20T05:51:14.765Z,9.90
2022-10-20T05:52:12.222Z,10.20
2022-10-20T05:53:12.213Z,10.20
2022-10-20T05:54:12.203Z,10.40
2022-10-20T05:55:12.191Z,10.40
2022-10-20T05:56:12.198Z,9.90
2022-10-20T05:57:12.168Z,10.70
2022-10-20T05:58:12.154Z,10.70
2022-10-20T05:59:12.165Z,10.50
2022-10-20T06:00:12.136Z,10.00
2022-10-20T06:01:12.132Z,10.10
2022-10-20T06:02:12.117Z,10.30
2022-10-20T06:03:13.946Z,10.60
2022-10-20T06:04:13.107Z,10.70
2022-10-20T06:05:12.077Z,10.20
2022-10-20T06:06:12.065Z,9.70
2022-10-20T06:07:12.074Z,10.30
2022-10-20T06:08:12.048Z,9.90
2022-10-20T06:09:12.056Z,10.10
2022-10-20T06:10:12.042Z,10.30
2022-10-20T06:11:12.012Z,9.60
2022-10-20T06:12:12.027Z,9.60
2022-10-20T06:13:11.987Z,10.60
2022-10-20T06:14:11.974Z,9.80
2022-10-20T06:15:11.965Z,11.10
2022-10-20T06:16:11.952Z,10.20
2022-10-20T06:17:11.966Z,9.50
2022-10-20T06:18:11.931Z,10.50
2022-10-20T06:19:11.926Z,9.70
2022-10-20T06:20:11.909Z,10.20
2022-10-20T06:21:11.896Z,10.30
2022-10-20T06:22:11.907Z,10.40
2022-10-20T06:23:11.892Z,10.10
2022-10-20T06:24:11.885Z,9.60
2022-10-20T06:25:11.854Z,9.80
2022-10-20T06:26:11.839Z,9.20
2022-10-20T06:27:11.850Z,10.70
2022-10-20T06:28:11.815Z,9.80
2022-10-20T06:29:11.827Z,9.70
2022-10-20T06:30:11.798Z,10.70
2022-10-20T06:31:11.784Z,10.20
2022-10-20T06:32:11.795Z,10.40
2022-10-20T06:33:11.763Z,10.20
2022-10-20T06:34:11.748Z,10.20
2022-10-20T06:35:11.765Z,10.10
2022-10-20T06:36:11.729Z,10.40
2022-10-20T06:37:11.742Z,10.20
2022-10-20T06:38:11.703Z,9.80
2022-10-20T06:39:11.718Z,10.30
2022-10-20T06:40:11.681Z,10.40
2022-10-20T06:41:11.672Z,10.10
2022-10-20T06:42:12.334Z,10.50
2022-10-20T06:43:11.653Z,10.50
2022-10-20T06:44:11.660Z,10.10
2022-10-20T06:45:14.353Z,10.20
2022-10-20T06:46:12.611Z,9.60
2022-10-20T06:47:11.608Z,9.80
2022-10-20T06:48:11.595Z,10.70
2022-10-20T06:49:11.609Z,9.50
2022-10-20T06:50:11.570Z,9.90
2022-10-20T06:51:11.569Z,10.30
2022-10-20T06:53:11.540Z,10.10
2022-10-20T06:54:11.547Z,10.50
2022-10-20T06:55:11.535Z,10.50
2022-10-20T06:56:11.526Z,9.90
2022-10-20T06:57:11.512Z,9.40
2022-10-20T06:58:11.478Z,10.50
2022-10-20T06:59:11.471Z,10.20
2022-10-20T07:00:11.455Z,10.40
2022-10-20T07:01:11.476Z,9.80
2022-10-20T07:02:11.437Z,9.30
2022-10-20T07:03:11.455Z,9.50
2022-10-20T07:04:11.412Z,9.70
2022-10-20T07:05:11.402Z,9.80
2022-10-20T07:06:11.389Z,9.00
2022-10-20T07:07:11.402Z,9.60
2022-10-20T07:08:11.367Z,9.40
2022-10-20T07:09:11.440Z,9.00
2022-10-20T07:10:11.346Z,9.30
2022-10-20T07:11:11.348Z,9.10
2022-10-20T07:12:11.347Z,9.90
2022-10-20T07:13:11.310Z,9.00
2022-10-20T07:14:11.318Z,8.80
2022-10-20T07:15:11.287Z,8.80
2022-10-20T07:16:11.279Z,9.10
2022-10-20T07:17:11.291Z,8.60
2022-10-20T07:18:11.252Z,9.50
2022-10-20T07:19:11.252Z,9.30
2022-10-20T07:20:11.232Z,9.10
2022-10-20T07:21:11.246Z,8.60
2022-10-20T07:22:11.207Z,8.20
2022-10-20T07:23:11.197Z,8.60
2022-10-20T07:24:11.204Z,8.80
2022-10-20T07:25:11.201Z,8.30
2022-10-20T07:26:11.208Z,8.60
2022-10-20T07:27:11.192Z,8.40
2022-10-20T07:28:11.164Z,8.50
2022-10-20T07:29:11.133Z,7.90
2022-10-20T07:30:11.116Z,8.20
2022-10-20T07:31:11.222Z,9.30
2022-10-20T07:32:11.096Z,8.40
2022-10-20T07:33:11.085Z,8.20
2022-10-20T07:34:25.115Z,8.60
2022-10-20T07:35:12.060Z,8.20
2022-10-20T07:36:11.073Z,7.80
2022-10-20T07:37:11.042Z,7.80
2022-10-20T07:38:11.049Z,7.80
2022-10-20T07:39:11.016Z,8.00
2022-10-20T07:40:11.100Z,7.70
2022-10-20T07:41:10.999Z,8.00
2022-10-20T07:42:10.985Z,7.30
2022-10-20T07:43:10.996Z,7.80
2022-10-20T07:44:11.299Z,7.00
2022-10-20T07:45:10.954Z,7.20
2022-10-20T07:46:10.936Z,7.40
2022-10-20T07:47:10.934Z,7.80
2022-10-20T07:48:10.948Z,7.70
2022-10-20T07:49:39.278Z,7.40
2022-10-20T07:50:11.890Z,7.20
2022-10-20T07:51:10.906Z,7.20
2022-10-20T07:52:10.870Z,7.40
2022-10-20T07:53:10.860Z,7.30
2022-10-20T07:54:10.870Z,7.40
2022-10-20T07:55:17.915Z,7.20
2022-10-20T07:56:11.822Z,7.50
2022-10-20T07:57:10.814Z,7.30
2022-10-20T07:58:10.804Z,6.70
2022-10-20T07:59:10.839Z,7.00
2022-10-20T08:00:10.781Z,7.00
2022-10-20T08:01:10.773Z,7.60
2022-10-20T08:02:10.825Z,7.40
2022-10-20T08:03:10.758Z,7.60
2022-10-20T08:04:10.750Z,6.80
2022-10-20T08:05:10.746Z,7.80
2022-10-20T08:06:10.713Z,7.40
2022-10-20T08:07:10.703Z,7.20
2022-10-20T08:08:10.718Z,7.00
2022-10-20T08:09:10.678Z,6.90
2022-10-20T08:10:10.687Z,6.70
2022-10-20T08:11:10.678Z,6.80
2022-10-20T08:12:10.644Z,6.60
2022-10-20T08:13:10.636Z,7.00
2022-10-20T08:14:10.619Z,7.50
2022-10-20T08:15:10.666Z,7.10
2022-10-20T08:16:10.641Z,6.40
2022-10-20T08:17:10.628Z,7.10
2022-10-20T08:18:14.554Z,6.80
2022-10-20T08:19:14.586Z,6.80
2022-10-20T08:20:11.548Z,7.00
2022-10-20T08:21:10.543Z,6.60
2022-10-20T08:22:10.530Z,6.40
2022-10-20T08:23:10.520Z,7.00
2022-10-20T08:24:10.508Z,6.30
2022-10-20T08:25:10.546Z,6.60
2022-10-20T08:26:11.450Z,7.00
2022-10-20T08:27:10.474Z,7.20
2022-10-20T08:28:10.462Z,6.60
2022-10-20T08:29:10.450Z,7.10
2022-10-20T08:30:23.433Z,6.70
2022-10-20T08:31:11.442Z,6.80
2022-10-20T08:32:10.420Z,6.20
2022-10-20T08:33:10.406Z,6.40
2022-10-20T08:34:10.401Z,6.70
2022-10-20T08:35:10.404Z,6.30
2022-10-20T08:36:10.372Z,6.20
2022-10-20T08:37:10.424Z,6.60
2022-10-20T08:38:10.363Z,6.10
2022-10-20T08:39:10.338Z,6.70
2022-10-20T08:40:10.361Z,6.70
2022-10-20T08:41:10.318Z,6.80
2022-10-20T08:42:10.302Z,7.00
2022-10-20T08:43:10.314Z,7.20
2022-10-20T08:44:10.279Z,6.30
2022-10-20T08:45:10.276Z,6.80
2022-10-20T08:46:10.317Z,6.40
2022-10-20T08:47:10.300Z,6.10
2022-10-20T08:48:10.235Z,6.40
2022-10-20T08:49:10.230Z,6.40
2022-10-20T08:50:10.242Z,6.40
2022-10-20T08:51:10.205Z,6.00
2022-10-20T08:52:10.189Z,6.10
2022-10-20T08:53:10.180Z,6.30
2022-10-20T08:54:10.168Z,6.10
2022-10-20T08:55:10.234Z,6.60
2022-10-20T08:56:10.164Z,6.20
2022-10-20T08:57:10.134Z,6.20
2022-10-20T08:58:10.125Z,5.50
2022-10-20T08:59:10.113Z,6.30
2022-10-20T09:00:10.120Z,6.20
2022-10-20T09:01:10.111Z,6.10
2022-10-20T09:02:10.170Z,5.90
2022-10-20T09:03:10.082Z,6.20
2022-10-20T09:04:10.054Z,6.20
2022-10-20T09:05:12.019Z,6.30
2022-10-20T09:06:11.051Z,6.10
2022-10-20T09:07:10.024Z,5.80
2022-10-20T09:08:10.035Z,6.00
2022-10-20T09:09:10.125Z,5.50
2022-10-20T09:10:09.986Z,6.20
2022-10-20T09:11:09.975Z,6.10
2022-10-20T09:12:09.967Z,5.60
2022-10-20T09:13:09.973Z,5.90
2022-10-20T09:14:09.940Z,6.10
2022-10-20T09:15:09.932Z,6.00
2022-10-20T09:16:12.525Z,5.90
2022-10-20T09:17:11.595Z,5.60
2022-10-20T09:18:09.926Z,5.50
2022-10-20T09:19:09.949Z,5.80
2022-10-20T09:20:09.874Z,5.90
2022-10-20T09:21:09.865Z,5.80
2022-10-20T09:22:09.879Z,5.60
2022-10-20T09:23:28.354Z,6.30
2022-10-20T09:24:10.828Z,5.80
2022-10-20T09:25:09.817Z,6.00
2022-10-20T09:26:19.506Z,6.20
2022-10-20T09:27:10.794Z,5.90
2022-10-20T09:28:09.781Z,5.60
2022-10-20T09:29:14.117Z,6.10
2022-10-20T09:30:10.758Z,5.20
2022-10-20T09:31:09.775Z,6.10
2022-10-20T09:32:34.343Z,6.20
2022-10-20T09:33:10.726Z,6.30
2022-10-20T09:34:09.726Z,6.10
2022-10-20T09:35:09.721Z,6.20
2022-10-20T09:36:09.715Z,5.80
2022-10-20T09:37:09.683Z,5.30
2022-10-20T09:38:09.667Z,5.90
2022-10-20T09:39:09.658Z,6.00
2022-10-20T09:40:09.645Z,5.40
2022-10-20T09:41:09.658Z,5.60
2022-10-20T09:42:09.624Z,5.40
2022-10-20T09:43:09.636Z,5.30
2022-10-20T09:44:09.601Z,6.00
2022-10-20T09:45:09.590Z,5.00
2022-10-20T09:46:09.577Z,5.80
2022-10-20T09:47:09.567Z,4.80
2022-10-20T09:48:09.577Z,5.40
2022-10-20T09:49:09.566Z,5.30
2022-10-20T09:50:09.531Z,5.60
2022-10-20T09:51:09.592Z,5.20
2022-10-20T09:52:09.532Z,5.60
2022-10-20T09:53:09.499Z,5.20
2022-10-20T09:54:09.487Z,5.30
2022-10-20T09:55:09.500Z,5.00
2022-10-20T09:56:09.465Z,5.60
2022-10-20T09:57:09.454Z,4.80
2022-10-20T09:58:11.818Z,5.40
2022-10-20T09:59:09.429Z,5.00
2022-10-20T10:00:32.266Z,5.20
2022-10-20T10:01:10.485Z,5.30
2022-10-20T10:02:09.399Z,5.00
2022-10-20T10:03:09.407Z,5.20
2022-10-20T10:04:11.087Z,4.90
2022-10-20T10:05:09.362Z,4.90
2022-10-20T10:06:09.372Z,4.70
2022-10-20T10:07:09.378Z,4.50
2022-10-20T10:08:09.329Z,4.90
2022-10-20T10:09:09.370Z,4.50
2022-10-20T10:10:09.306Z,4.50
2022-10-20T10:11:09.315Z,4.80
2022-10-20T10:12:09.286Z,4.80
2022-10-20T10:13:09.279Z,4.90
2022-10-20T10:14:09.261Z,4.60
2022-10-20T10:15:09.270Z,4.70
2022-10-20T10:16:09.261Z,4.90
2022-10-20T10:17:09.225Z,4.60
2022-10-20T10:18:09.217Z,4.40
2022-10-20T10:19:09.265Z,4.80
2022-10-20T10:20:09.193Z,4.70
2022-10-20T10:21:09.200Z,4.70
2022-10-20T10:22:09.174Z,5.30
2022-10-20T10:23:09.175Z,4.70
2022-10-20T10:24:09.170Z,4.50
2022-10-20T10:25:09.136Z,4.60
2022-10-20T10:26:09.125Z,4.80
2022-10-20T10:27:09.113Z,4.40
2022-10-20T10:28:09.106Z,4.70
2022-10-20T10:29:09.112Z,4.40
2022-10-20T10:30:09.084Z,4.70
2022-10-20T10:31:09.072Z,4.30
2022-10-20T10:32:09.059Z,4.70
2022-10-20T10:33:09.066Z,4.80
2022-10-20T10:34:09.037Z,4.60
2022-10-20T10:35:09.025Z,5.00
2022-10-20T10:36:09.019Z,4.50
2022-10-20T10:37:09.100Z,4.50
2022-10-20T10:38:09.012Z,4.30
2022-10-20T10:39:08.998Z,4.20
2022-10-20T10:40:08.968Z,4.30
2022-10-20T10:41:08.956Z,4.30
2022-10-20T10:42:08.967Z,4.60
2022-10-20T10:43:08.934Z,5.30
2022-10-20T10:44:08.924Z,4.70
2022-10-20T10:45:09.186Z,5.40
2022-10-20T10:46:08.901Z,4.80
2022-10-20T10:47:08.908Z,4.20
2022-10-20T10:48:08.881Z,4.20
2022-10-20T10:49:08.864Z,4.70
2022-10-20T10:50:08.887Z,4.40
2022-10-20T10:51:08.845Z,4.20
2022-10-20T10:52:08.856Z,4.60
2022-10-20T10:53:08.819Z,4.60
2022-10-20T10:54:11.777Z,4.40
2022-10-20T10:55:11.715Z,4.50
2022-10-20T10:57:11.810Z,4.60
2022-10-20T10:58:08.806Z,4.80
2022-10-20T10:59:08.764Z,4.80
2022-10-20T11:00:08.743Z,4.60
2022-10-20T11:01:08.770Z,4.30
2022-10-20T11:02:08.726Z,4.20
2022-10-20T11:03:08.705Z,4.50
2022-10-20T11:04:08.696Z,4.40
2022-10-20T11:05:08.724Z,4.40
2022-10-20T11:06:08.672Z,3.90
2022-10-20T11:07:08.691Z,4.10
2022-10-20T11:08:08.651Z,4.40
2022-10-20T11:09:08.637Z,4.10
2022-10-20T11:10:08.648Z,4.20
2022-10-20T11:11:08.632Z,4.40
2022-10-20T11:12:08.604Z,4.40
2022-10-20T11:13:08.615Z,4.10
2022-10-20T11:14:08.672Z,4.00
2022-10-20T11:15:08.590Z,4.10
2022-10-20T11:16:08.570Z,4.40
2022-10-20T11:17:08.570Z,3.90
2022-10-20T11:18:08.537Z,4.40
2022-10-20T11:19:08.527Z,3.90
2022-10-20T11:20:08.513Z,3.80
2022-10-20T11:21:08.501Z,4.00
2022-10-20T11:22:10.577Z,3.80
2022-10-20T11:23:08.479Z,4.30
2022-10-20T11:24:08.470Z,3.80
2022-10-20T11:25:08.460Z,3.70
2022-10-20T11:26:08.468Z,4.50
2022-10-20T11:27:08.468Z,3.70
2022-10-20T11:28:08.426Z,4.30
2022-10-20T11:29:08.411Z,3.80
2022-10-20T11:30:08.402Z,3.80
2022-10-20T11:31:08.412Z,4.10
2022-10-20T11:32:08.384Z,3.70
2022-10-20T11:33:08.366Z,3.90
2022-10-20T11:34:08.355Z,3.50
2022-10-20T11:35:08.364Z,3.40
2022-10-20T11:36:08.337Z,3.70
2022-10-20T11:37:08.321Z,3.60
2022-10-20T11:38:08.310Z,3.70
2022-10-20T11:39:08.301Z,3.40
2022-10-20T11:40:08.827Z,3.50
2022-10-20T11:41:08.275Z,3.70
2022-10-20T11:42:08.266Z,3.40
2022-10-20T11:43:10.352Z,3.90
2022-10-20T11:44:08.253Z,3.40
2022-10-20T11:45:08.230Z,4.60
2022-10-20T11:46:08.242Z,4.10
2022-10-20T11:47:08.210Z,3.90
2022-10-20T11:48:08.217Z,3.60
2022-10-20T11:49:08.185Z,3.80
2022-10-20T11:50:08.177Z,3.60
2022-10-20T11:51:08.188Z,3.50
2022-10-20T11:52:08.156Z,3.50
2022-10-20T11:53:08.140Z,3.50
2022-10-20T11:54:08.131Z,3.20
2022-10-20T11:55:08.138Z,3.40
2022-10-20T11:56:08.109Z,3.90
2022-10-20T11:57:08.094Z,3.60
2022-10-20T11:58:08.108Z,3.60
2022-10-20T11:59:08.133Z,3.40
2022-10-20T12:00:08.141Z,3.60
2022-10-20T12:01:08.051Z,3.90
2022-10-20T12:02:08.207Z,3.70
2022-10-20T12:03:08.057Z,4.00
2022-10-20T12:04:08.018Z,3.30
2022-10-20T12:05:08.120Z,3.60
2022-10-20T12:06:10.091Z,3.90
2022-10-20T12:07:07.981Z,3.90
2022-10-20T12:08:28.185Z,4.00
2022-10-20T12:09:09.110Z,3.90
2022-10-20T12:10:07.949Z,3.70
2022-10-20T12:11:07.939Z,3.80
2022-10-20T12:12:07.925Z,3.80
2022-10-20T12:13:07.941Z,3.90
2022-10-20T12:14:07.903Z,4.00
2022-10-20T12:15:07.908Z,4.40
2022-10-20T12:16:07.886Z,4.20
2022-10-20T12:17:07.871Z,3.80
2022-10-20T12:18:07.858Z,3.80
2022-10-20T12:19:07.868Z,4.00
2022-10-20T12:20:07.836Z,4.00
2022-10-20T12:21:07.829Z,3.80
2022-10-20T12:22:07.818Z,3.60
2022-10-20T12:23:07.799Z,4.20
2022-10-20T12:24:07.810Z,3.70
2022-10-20T12:25:07.777Z,3.50
2022-10-20T12:26:07.768Z,3.70
2022-10-20T12:27:07.756Z,3.70
2022-10-20T12:28:07.747Z,3.60
2022-10-20T12:29:07.756Z,3.90
2022-10-20T12:30:07.728Z,3.60
2022-10-20T12:31:07.743Z,3.90
2022-10-20T12:32:07.701Z,4.10
2022-10-20T12:33:07.713Z,4.00
2022-10-20T12:34:07.679Z,4.00
2022-10-20T12:35:07.690Z,3.60
2022-10-20T12:36:07.660Z,3.80
2022-10-20T12:37:07.649Z,3.60
2022-10-20T12:38:07.634Z,3.60
2022-10-20T12:39:07.622Z,3.80
2022-10-20T12:40:07.612Z,3.30
2022-10-20T12:41:07.620Z,3.50
2022-10-20T12:42:07.588Z,3.80
2022-10-20T12:43:07.575Z,3.80
2022-10-20T12:44:07.572Z,3.50
2022-10-20T12:45:07.552Z,3.90
2022-10-20T12:46:07.633Z,3.60
2022-10-20T12:47:07.551Z,3.90
2022-10-20T12:48:07.519Z,3.70
2022-10-20T12:49:11.051Z,3.50
2022-10-20T12:50:07.497Z,3.90
2022-10-20T12:51:07.506Z,3.90
2022-10-20T12:52:07.478Z,3.70
2022-10-20T12:53:07.462Z,4.00
2022-10-20T12:54:07.484Z,3.80
2022-10-20T12:55:07.439Z,3.60
2022-10-20T12:56:07.429Z,3.80
2022-10-20T12:57:07.443Z,3.80
2022-10-20T12:58:07.410Z,3.70
2022-10-20T12:59:07.400Z,4.00
2022-10-20T13:00:07.387Z,3.50
2022-10-20T13:01:07.527Z,3.80
2022-10-20T13:02:07.385Z,3.50
2022-10-20T13:03:07.385Z,3.70
2022-10-20T13:04:07.340Z,3.50
2022-10-20T13:05:07.324Z,3.90
2022-10-20T13:06:07.314Z,3.70
2022-10-20T13:07:07.302Z,4.20
2022-10-20T13:08:07.315Z,3.50
2022-10-20T13:09:07.411Z,3.30
2022-10-20T13:10:07.275Z,3.60
2022-10-20T13:11:07.278Z,3.60
2022-10-20T13:12:07.246Z,3.80
2022-10-20T13:13:07.238Z,3.60
2022-10-20T13:14:07.229Z,3.90
2022-10-20T13:15:07.237Z,4.00
2022-10-20T13:16:07.203Z,3.60
2022-10-20T13:17:07.191Z,3.60
2022-10-20T13:18:07.202Z,3.70
2022-10-20T13:19:07.205Z,3.50
2022-10-20T13:20:07.242Z,3.20